sensor_id;sensor_type;location;lat;lon;timestamp;temperature;humidity
68480;DHT22;55469;48.934;12.050;2024-02-16T00:01:06;7.60;99.90
68480;DHT22;55469;48.934;12.050;2024-02-16T00:03:33;7.60;99.90
68480;DHT22;55469;48.934;12.050;2024-02-16T00:05:58;7.60;99.90
68480;DHT22;55469;48.934;12.050;2024-02-16T00:08:24;7.50;99.90
68480;DHT22;55469;48.934;12.050;2024-02-16T00:10:50;7.50;99.90
68480;DHT22;55469;48.934;12.050;2024-02-16T00:13:16;7.50;99.90
68480;DHT22;55469;48.934;12.050;2024-02-16T00:15:41;7.50;99.90
68480;DHT22;55469;48.934;12.050;2024-02-16T00:18:07;7.50;99.90
68480;DHT22;55469;48.934;12.050;2024-02-16T00:20:33;7.50;99.90
68480;DHT22;55469;48.934;12.050;2024-02-16T00:22:58;7.40;99.90
68480;DHT22;55469;48.934;12.050;2024-02-16T00:25:25;7.40;99.90
68480;DHT22;55469;48.934;12.050;2024-02-16T00:27:51;7.40;99.90
68480;DHT22;55469;48.934;12.050;2024-02-16T00:30:20;7.40;99.90
68480;DHT22;55469;48.934;12.050;2024-02-16T00:32:45;7.40;99.90
68480;DHT22;55469;48.934;12.050;2024-02-16T00:35:11;7.40;99.90
68480;DHT22;55469;48.934;12.050;2024-02-16T00:37:37;7.40;99.90
68480;DHT22;55469;48.934;12.050;2024-02-16T00:40:03;7.30;99.90
68480;DHT22;55469;48.934;12.050;2024-02-16T00:42:31;7.30;99.90
68480;DHT22;55469;48.934;12.050;2024-02-16T00:44:57;7.30;99.90
68480;DHT22;55469;48.934;12.050;2024-02-16T00:47:25;7.30;99.90
68480;DHT22;55469;48.934;12.050;2024-02-16T00:49:53;7.30;99.90
68480;DHT22;55469;48.934;12.050;2024-02-16T00:52:19;7.30;99.90
68480;DHT22;55469;48.934;12.050;2024-02-16T00:54:44;7.30;99.90
68480;DHT22;55469;48.934;12.050;2024-02-16T00:57:11;7.30;99.90
68480;DHT22;55469;48.934;12.050;2024-02-16T00:59:39;7.20;99.90
68480;DHT22;55469;48.934;12.050;2024-02-16T01:02:05;7.20;99.90
68480;DHT22;55469;48.934;12.050;2024-02-16T01:04:32;7.20;99.90
68480;DHT22;55469;48.934;12.050;2024-02-16T01:06:58;7.20;99.90
68480;DHT22;55469;48.934;12.050;2024-02-16T01:09:24;7.20;99.90
68480;DHT22;55469;48.934;12.050;2024-02-16T01:11:50;7.20;99.90
68480;DHT22;55469;48.934;12.050;2024-02-16T01:14:15;7.20;99.90
68480;DHT22;55469;48.934;12.050;2024-02-16T01:16:41;7.20;99.90
68480;DHT22;55469;48.934;12.050;2024-02-16T01:19:07;7.20;99.90
68480;DHT22;55469;48.934;12.050;2024-02-16T01:21:33;7.20;99.90
68480;DHT22;55469;48.934;12.050;2024-02-16T01:23:58;7.10;99.90
68480;DHT22;55469;48.934;12.050;2024-02-16T01:26:26;7.10;99.90
68480;DHT22;55469;48.934;12.050;2024-02-16T01:28:54;7.10;99.90
68480;DHT22;55469;48.934;12.050;2024-02-16T01:31:20;7.10;99.90
68480;DHT22;55469;48.934;12.050;2024-02-16T01:33:46;7.10;99.90
68480;DHT22;55469;48.934;12.050;2024-02-16T01:36:11;7.10;99.90
68480;DHT22;55469;48.934;12.050;2024-02-16T01:38:37;7.10;99.90
68480;DHT22;55469;48.934;12.050;2024-02-16T01:41:02;7.10;99.90
68480;DHT22;55469;48.934;12.050;2024-02-16T01:43:28;7.00;99.90
68480;DHT22;55469;48.934;12.050;2024-02-16T01:45:54;7.00;99.90
68480;DHT22;55469;48.934;12.050;2024-02-16T01:48:20;7.00;99.90
68480;DHT22;55469;48.934;12.050;2024-02-16T01:50:45;7.00;99.90
68480;DHT22;55469;48.934;12.050;2024-02-16T01:53:13;7.00;99.90
68480;DHT22;55469;48.934;12.050;2024-02-16T01:55:40;7.00;99.90
68480;DHT22;55469;48.934;12.050;2024-02-16T01:58:05;7.00;99.90
68480;DHT22;55469;48.934;12.050;2024-02-16T02:00:32;6.90;99.90
68480;DHT22;55469;48.934;12.050;2024-02-16T02:02:58;6.90;99.90
68480;DHT22;55469;48.934;12.050;2024-02-16T02:05:23;7.00;99.90
68480;DHT22;55469;48.934;12.050;2024-02-16T02:07:50;6.90;99.90
68480;DHT22;55469;48.934;12.050;2024-02-16T02:10:21;6.90;99.90
68480;DHT22;55469;48.934;12.050;2024-02-16T02:12:47;6.90;99.90
68480;DHT22;55469;48.934;12.050;2024-02-16T02:15:13;6.90;99.90
68480;DHT22;55469;48.934;12.050;2024-02-16T02:17:38;6.90;99.90
68480;DHT22;55469;48.934;12.050;2024-02-16T02:20:04;6.90;99.90
68480;DHT22;55469;48.934;12.050;2024-02-16T02:22:34;6.80;99.90
68480;DHT22;55469;48.934;12.050;2024-02-16T02:24:59;6.80;99.90
68480;DHT22;55469;48.934;12.050;2024-02-16T02:27:25;6.90;99.90
68480;DHT22;55469;48.934;12.050;2024-02-16T02:29:51;6.80;99.90
68480;DHT22;55469;48.934;12.050;2024-02-16T02:32:16;6.80;99.90
68480;DHT22;55469;48.934;12.050;2024-02-16T02:34:42;6.80;99.90
68480;DHT22;55469;48.934;12.050;2024-02-16T02:37:08;6.80;99.90
68480;DHT22;55469;48.934;12.050;2024-02-16T02:39:34;6.80;99.90
68480;DHT22;55469;48.934;12.050;2024-02-16T02:42:00;6.80;99.90
68480;DHT22;55469;48.934;12.050;2024-02-16T02:44:25;6.80;99.90
68480;DHT22;55469;48.934;12.050;2024-02-16T02:46:57;6.80;99.90
68480;DHT22;55469;48.934;12.050;2024-02-16T02:49:23;6.80;99.90
68480;DHT22;55469;48.934;12.050;2024-02-16T02:51:49;6.80;99.90
68480;DHT22;55469;48.934;12.050;2024-02-16T02:54:15;6.80;99.90
68480;DHT22;55469;48.934;12.050;2024-02-16T02:56:40;6.80;99.90
68480;DHT22;55469;48.934;12.050;2024-02-16T02:59:06;6.70;99.90
68480;DHT22;55469;48.934;12.050;2024-02-16T03:01:32;6.70;99.90
68480;DHT22;55469;48.934;12.050;2024-02-16T03:03:58;6.70;99.90
68480;DHT22;55469;48.934;12.050;2024-02-16T03:06:25;6.80;99.90
68480;DHT22;55469;48.934;12.050;2024-02-16T03:08:51;6.70;99.90
68480;DHT22;55469;48.934;12.050;2024-02-16T03:11:16;6.80;99.90
68480;DHT22;55469;48.934;12.050;2024-02-16T03:13:42;6.80;99.90
68480;DHT22;55469;48.934;12.050;2024-02-16T03:16:08;6.70;99.90
68480;DHT22;55469;48.934;12.050;2024-02-16T03:18:33;6.70;99.90
68480;DHT22;55469;48.934;12.050;2024-02-16T03:20:59;6.70;99.90
68480;DHT22;55469;48.934;12.050;2024-02-16T03:23:25;6.70;99.90
68480;DHT22;55469;48.934;12.050;2024-02-16T03:25:58;6.70;99.90
68480;DHT22;55469;48.934;12.050;2024-02-16T03:28:24;6.70;99.90
68480;DHT22;55469;48.934;12.050;2024-02-16T03:30:50;6.70;99.90
68480;DHT22;55469;48.934;12.050;2024-02-16T03:33:16;6.70;99.90
68480;DHT22;55469;48.934;12.050;2024-02-16T03:35:41;6.70;99.90
68480;DHT22;55469;48.934;12.050;2024-02-16T03:38:07;6.70;99.90
68480;DHT22;55469;48.934;12.050;2024-02-16T03:40:33;6.70;99.90
68480;DHT22;55469;48.934;12.050;2024-02-16T03:42:59;6.70;99.90
68480;DHT22;55469;48.934;12.050;2024-02-16T03:45:24;6.70;99.90
68480;DHT22;55469;48.934;12.050;2024-02-16T03:47:52;6.70;99.90
68480;DHT22;55469;48.934;12.050;2024-02-16T03:50:21;6.70;99.90
68480;DHT22;55469;48.934;12.050;2024-02-16T03:52:47;6.70;99.90
68480;DHT22;55469;48.934;12.050;2024-02-16T03:55:13;6.70;99.90
68480;DHT22;55469;48.934;12.050;2024-02-16T03:57:39;6.70;99.90
68480;DHT22;55469;48.934;12.050;2024-02-16T04:00:05;6.70;99.90
68480;DHT22;55469;48.934;12.050;2024-02-16T04:02:31;6.70;99.90
68480;DHT22;55469;48.934;12.050;2024-02-16T04:05:00;6.70;99.90
68480;DHT22;55469;48.934;12.050;2024-02-16T04:07:25;6.60;99.90
68480;DHT22;55469;48.934;12.050;2024-02-16T04:09:51;6.60;99.90
68480;DHT22;55469;48.934;12.050;2024-02-16T04:12:17;6.60;99.90
68480;DHT22;55469;48.934;12.050;2024-02-16T04:14:42;6.60;99.90
68480;DHT22;55469;48.934;12.050;2024-02-16T04:17:09;6.60;99.90
68480;DHT22;55469;48.934;12.050;2024-02-16T04:19:36;6.60;99.90
68480;DHT22;55469;48.934;12.050;2024-02-16T04:22:02;6.60;99.90
68480;DHT22;55469;48.934;12.050;2024-02-16T04:24:28;6.60;99.90
68480;DHT22;55469;48.934;12.050;2024-02-16T04:26:54;6.60;99.90
68480;DHT22;55469;48.934;12.050;2024-02-16T04:29:20;6.60;99.90
68480;DHT22;55469;48.934;12.050;2024-02-16T04:31:45;6.60;99.90
68480;DHT22;55469;48.934;12.050;2024-02-16T04:34:12;6.60;99.90
68480;DHT22;55469;48.934;12.050;2024-02-16T04:36:37;6.50;99.90
68480;DHT22;55469;48.934;12.050;2024-02-16T04:39:03;6.50;99.90
68480;DHT22;55469;48.934;12.050;2024-02-16T04:41:29;6.50;99.90
68480;DHT22;55469;48.934;12.050;2024-02-16T04:44:00;6.60;99.90
68480;DHT22;55469;48.934;12.050;2024-02-16T04:46:26;6.50;99.90
68480;DHT22;55469;48.934;12.050;2024-02-16T04:48:52;6.60;99.90
68480;DHT22;55469;48.934;12.050;2024-02-16T04:51:18;6.50;99.90
68480;DHT22;55469;48.934;12.050;2024-02-16T04:53:44;6.50;99.90
68480;DHT22;55469;48.934;12.050;2024-02-16T04:56:09;6.50;99.90
68480;DHT22;55469;48.934;12.050;2024-02-16T04:58:39;6.50;99.90
68480;DHT22;55469;48.934;12.050;2024-02-16T05:01:05;6.50;99.90
68480;DHT22;55469;48.934;12.050;2024-02-16T05:03:32;6.50;99.90
68480;DHT22;55469;48.934;12.050;2024-02-16T05:05:59;6.50;99.90
68480;DHT22;55469;48.934;12.050;2024-02-16T05:08:25;6.50;99.90
68480;DHT22;55469;48.934;12.050;2024-02-16T05:13:27;6.50;99.90
68480;DHT22;55469;48.934;12.050;2024-02-16T05:15:53;6.50;99.90
68480;DHT22;55469;48.934;12.050;2024-02-16T05:18:22;6.50;99.90
68480;DHT22;55469;48.934;12.050;2024-02-16T05:20:48;6.50;99.90
68480;DHT22;55469;48.934;12.050;2024-02-16T05:23:14;6.50;99.90
68480;DHT22;55469;48.934;12.050;2024-02-16T05:25:40;6.50;99.90
68480;DHT22;55469;48.934;12.050;2024-02-16T05:28:06;6.50;99.90
68480;DHT22;55469;48.934;12.050;2024-02-16T05:30:32;6.50;99.90
68480;DHT22;55469;48.934;12.050;2024-02-16T05:32:57;6.50;99.90
68480;DHT22;55469;48.934;12.050;2024-02-16T05:35:24;6.40;99.90
68480;DHT22;55469;48.934;12.050;2024-02-16T05:38:02;6.50;99.90
68480;DHT22;55469;48.934;12.050;2024-02-16T05:40:32;6.40;99.90
68480;DHT22;55469;48.934;12.050;2024-02-16T05:43:09;6.40;99.90
68480;DHT22;55469;48.934;12.050;2024-02-16T05:45:34;6.40;99.90
68480;DHT22;55469;48.934;12.050;2024-02-16T05:48:00;6.40;99.90
68480;DHT22;55469;48.934;12.050;2024-02-16T05:50:26;6.40;99.90
68480;DHT22;55469;48.934;12.050;2024-02-16T05:53:02;6.40;99.90
68480;DHT22;55469;48.934;12.050;2024-02-16T05:55:28;6.40;99.90
68480;DHT22;55469;48.934;12.050;2024-02-16T05:57:54;6.40;99.90
68480;DHT22;55469;48.934;12.050;2024-02-16T06:00:20;6.40;99.90
68480;DHT22;55469;48.934;12.050;2024-02-16T06:02:46;6.40;99.90
68480;DHT22;55469;48.934;12.050;2024-02-16T06:05:12;6.40;99.90
68480;DHT22;55469;48.934;12.050;2024-02-16T06:07:38;6.40;99.90
68480;DHT22;55469;48.934;12.050;2024-02-16T06:10:04;6.40;99.90
68480;DHT22;55469;48.934;12.050;2024-02-16T06:12:32;6.30;99.90
68480;DHT22;55469;48.934;12.050;2024-02-16T06:14:58;6.40;99.90
68480;DHT22;55469;48.934;12.050;2024-02-16T06:17:24;6.40;99.90
68480;DHT22;55469;48.934;12.050;2024-02-16T06:19:54;6.30;99.90
68480;DHT22;55469;48.934;12.050;2024-02-16T06:22:30;6.30;99.90
68480;DHT22;55469;48.934;12.050;2024-02-16T06:24:59;6.30;99.90
68480;DHT22;55469;48.934;12.050;2024-02-16T06:27:24;6.30;99.90
68480;DHT22;55469;48.934;12.050;2024-02-16T06:29:50;6.30;99.90
68480;DHT22;55469;48.934;12.050;2024-02-16T06:32:15;6.30;99.90
68480;DHT22;55469;48.934;12.050;2024-02-16T06:34:42;6.30;99.90
68480;DHT22;55469;48.934;12.050;2024-02-16T06:37:08;6.30;99.90
68480;DHT22;55469;48.934;12.050;2024-02-16T06:39:34;6.30;99.90
68480;DHT22;55469;48.934;12.050;2024-02-16T06:41:59;6.30;99.90
68480;DHT22;55469;48.934;12.050;2024-02-16T06:44:25;6.30;99.90
68480;DHT22;55469;48.934;12.050;2024-02-16T06:46:58;6.30;99.90
68480;DHT22;55469;48.934;12.050;2024-02-16T06:49:30;6.40;99.90
68480;DHT22;55469;48.934;12.050;2024-02-16T06:51:56;6.40;99.90
68480;DHT22;55469;48.934;12.050;2024-02-16T06:54:22;6.40;99.90
68480;DHT22;55469;48.934;12.050;2024-02-16T06:56:49;6.40;99.90
68480;DHT22;55469;48.934;12.050;2024-02-16T06:59:17;6.40;99.90
68480;DHT22;55469;48.934;12.050;2024-02-16T07:01:43;6.40;99.90
68480;DHT22;55469;48.934;12.050;2024-02-16T07:04:08;6.40;99.90
68480;DHT22;55469;48.934;12.050;2024-02-16T07:06:34;6.40;99.90
68480;DHT22;55469;48.934;12.050;2024-02-16T07:09:00;6.40;99.90
68480;DHT22;55469;48.934;12.050;2024-02-16T07:11:27;6.40;99.90
68480;DHT22;55469;48.934;12.050;2024-02-16T07:14:10;6.40;99.90
68480;DHT22;55469;48.934;12.050;2024-02-16T07:16:35;6.40;99.90
68480;DHT22;55469;48.934;12.050;2024-02-16T07:19:01;6.30;99.90
68480;DHT22;55469;48.934;12.050;2024-02-16T07:21:27;6.40;99.90
68480;DHT22;55469;48.934;12.050;2024-02-16T07:23:53;6.40;99.90
68480;DHT22;55469;48.934;12.050;2024-02-16T07:26:18;6.40;99.90
68480;DHT22;55469;48.934;12.050;2024-02-16T07:28:44;6.40;99.90
68480;DHT22;55469;48.934;12.050;2024-02-16T07:31:10;6.40;99.90
68480;DHT22;55469;48.934;12.050;2024-02-16T07:33:36;6.40;99.90
68480;DHT22;55469;48.934;12.050;2024-02-16T07:36:02;6.40;99.90
68480;DHT22;55469;48.934;12.050;2024-02-16T07:38:28;6.40;99.90
68480;DHT22;55469;48.934;12.050;2024-02-16T07:41:07;6.40;99.90
68480;DHT22;55469;48.934;12.050;2024-02-16T07:43:32;6.40;99.90
68480;DHT22;55469;48.934;12.050;2024-02-16T07:45:58;6.40;99.90
68480;DHT22;55469;48.934;12.050;2024-02-16T07:48:24;6.40;99.90
68480;DHT22;55469;48.934;12.050;2024-02-16T07:50:49;6.40;99.90
68480;DHT22;55469;48.934;12.050;2024-02-16T07:53:18;6.40;99.90
68480;DHT22;55469;48.934;12.050;2024-02-16T07:55:43;6.40;99.90
68480;DHT22;55469;48.934;12.050;2024-02-16T07:58:09;6.40;99.90
68480;DHT22;55469;48.934;12.050;2024-02-16T08:00:35;6.40;99.90
68480;DHT22;55469;48.934;12.050;2024-02-16T08:03:00;6.40;99.90
68480;DHT22;55469;48.934;12.050;2024-02-16T08:05:26;6.40;99.90
68480;DHT22;55469;48.934;12.050;2024-02-16T08:07:59;6.40;99.90
68480;DHT22;55469;48.934;12.050;2024-02-16T08:10:33;6.40;99.90
68480;DHT22;55469;48.934;12.050;2024-02-16T08:13:00;6.40;99.90
68480;DHT22;55469;48.934;12.050;2024-02-16T08:15:26;6.40;99.90
68480;DHT22;55469;48.934;12.050;2024-02-16T08:17:52;6.40;99.90
68480;DHT22;55469;48.934;12.050;2024-02-16T08:20:17;6.40;99.90
68480;DHT22;55469;48.934;12.050;2024-02-16T08:22:43;6.40;99.90
68480;DHT22;55469;48.934;12.050;2024-02-16T08:25:09;6.40;99.90
68480;DHT22;55469;48.934;12.050;2024-02-16T08:27:34;6.40;99.90
68480;DHT22;55469;48.934;12.050;2024-02-16T08:30:00;6.40;99.90
68480;DHT22;55469;48.934;12.050;2024-02-16T08:32:27;6.40;99.90
68480;DHT22;55469;48.934;12.050;2024-02-16T08:35:09;6.40;99.90
68480;DHT22;55469;48.934;12.050;2024-02-16T08:37:34;6.40;99.90
68480;DHT22;55469;48.934;12.050;2024-02-16T08:40:00;6.40;99.90
68480;DHT22;55469;48.934;12.050;2024-02-16T08:42:26;6.50;99.90
68480;DHT22;55469;48.934;12.050;2024-02-16T08:44:52;6.40;99.90
68480;DHT22;55469;48.934;12.050;2024-02-16T08:47:17;6.50;99.90
68480;DHT22;55469;48.934;12.050;2024-02-16T08:49:43;6.50;99.90
68480;DHT22;55469;48.934;12.050;2024-02-16T08:52:09;6.50;99.90
68480;DHT22;55469;48.934;12.050;2024-02-16T08:54:35;6.50;99.90
68480;DHT22;55469;48.934;12.050;2024-02-16T08:57:02;6.50;99.90
68480;DHT22;55469;48.934;12.050;2024-02-16T08:59:28;6.50;99.90
68480;DHT22;55469;48.934;12.050;2024-02-16T09:01:55;6.50;99.90
68480;DHT22;55469;48.934;12.050;2024-02-16T09:04:21;6.50;99.90
68480;DHT22;55469;48.934;12.050;2024-02-16T09:06:46;6.50;99.90
68480;DHT22;55469;48.934;12.050;2024-02-16T09:09:14;6.60;99.90
68480;DHT22;55469;48.934;12.050;2024-02-16T09:11:40;6.60;99.90
68480;DHT22;55469;48.934;12.050;2024-02-16T09:14:06;6.60;99.90
68480;DHT22;55469;48.934;12.050;2024-02-16T09:16:31;6.60;99.90
68480;DHT22;55469;48.934;12.050;2024-02-16T09:19:00;6.60;99.90
68480;DHT22;55469;48.934;12.050;2024-02-16T09:21:27;6.60;99.90
68480;DHT22;55469;48.934;12.050;2024-02-16T09:23:55;6.60;99.90
68480;DHT22;55469;48.934;12.050;2024-02-16T09:26:26;6.60;99.90
68480;DHT22;55469;48.934;12.050;2024-02-16T09:28:56;6.60;99.90
68480;DHT22;55469;48.934;12.050;2024-02-16T09:31:22;6.60;99.90
68480;DHT22;55469;48.934;12.050;2024-02-16T09:33:48;6.60;99.90
68480;DHT22;55469;48.934;12.050;2024-02-16T09:36:17;6.60;99.90
68480;DHT22;55469;48.934;12.050;2024-02-16T09:38:43;6.70;99.90
68480;DHT22;55469;48.934;12.050;2024-02-16T09:41:08;6.70;99.90
68480;DHT22;55469;48.934;12.050;2024-02-16T09:43:34;6.70;99.90
68480;DHT22;55469;48.934;12.050;2024-02-16T09:46:00;6.70;99.90
68480;DHT22;55469;48.934;12.050;2024-02-16T09:48:26;6.70;99.90
68480;DHT22;55469;48.934;12.050;2024-02-16T09:50:56;6.70;99.90
68480;DHT22;55469;48.934;12.050;2024-02-16T09:53:24;6.70;99.90
68480;DHT22;55469;48.934;12.050;2024-02-16T09:55:51;6.70;99.90
68480;DHT22;55469;48.934;12.050;2024-02-16T09:58:18;6.70;99.90
68480;DHT22;55469;48.934;12.050;2024-02-16T10:00:51;6.70;99.90
68480;DHT22;55469;48.934;12.050;2024-02-16T10:03:28;6.80;99.90
68480;DHT22;55469;48.934;12.050;2024-02-16T10:06:10;6.80;99.90
68480;DHT22;55469;48.934;12.050;2024-02-16T10:08:49;6.80;99.90
68480;DHT22;55469;48.934;12.050;2024-02-16T10:11:16;6.80;99.90
68480;DHT22;55469;48.934;12.050;2024-02-16T10:13:53;6.90;99.90
68480;DHT22;55469;48.934;12.050;2024-02-16T10:16:20;6.90;99.90
68480;DHT22;55469;48.934;12.050;2024-02-16T10:18:46;6.90;99.90
68480;DHT22;55469;48.934;12.050;2024-02-16T10:21:11;6.90;99.90
68480;DHT22;55469;48.934;12.050;2024-02-16T10:23:37;6.90;99.90
68480;DHT22;55469;48.934;12.050;2024-02-16T10:26:02;7.00;99.90
68480;DHT22;55469;48.934;12.050;2024-02-16T10:28:29;7.00;99.90
68480;DHT22;55469;48.934;12.050;2024-02-16T10:30:59;7.00;99.90
68480;DHT22;55469;48.934;12.050;2024-02-16T10:33:29;7.00;99.90
68480;DHT22;55469;48.934;12.050;2024-02-16T10:35:57;7.00;99.90
68480;DHT22;55469;48.934;12.050;2024-02-16T10:38:24;7.00;99.90
68480;DHT22;55469;48.934;12.050;2024-02-16T10:40:52;7.10;99.90
68480;DHT22;55469;48.934;12.050;2024-02-16T10:43:19;7.10;99.90
68480;DHT22;55469;48.934;12.050;2024-02-16T10:45:47;7.10;99.90
68480;DHT22;55469;48.934;12.050;2024-02-16T10:48:17;7.10;99.90
68480;DHT22;55469;48.934;12.050;2024-02-16T10:50:43;7.20;99.90
68480;DHT22;55469;48.934;12.050;2024-02-16T10:53:11;7.20;99.90
68480;DHT22;55469;48.934;12.050;2024-02-16T10:55:39;7.20;99.90
68480;DHT22;55469;48.934;12.050;2024-02-16T10:58:06;7.20;99.90
68480;DHT22;55469;48.934;12.050;2024-02-16T11:00:33;7.30;99.90
68480;DHT22;55469;48.934;12.050;2024-02-16T11:03:01;7.30;99.90
68480;DHT22;55469;48.934;12.050;2024-02-16T11:05:31;7.30;99.90
68480;DHT22;55469;48.934;12.050;2024-02-16T11:08:04;7.40;99.90
68480;DHT22;55469;48.934;12.050;2024-02-16T11:10:36;7.40;99.90
68480;DHT22;55469;48.934;12.050;2024-02-16T11:13:02;7.40;99.90
68480;DHT22;55469;48.934;12.050;2024-02-16T11:15:33;7.40;99.90
68480;DHT22;55469;48.934;12.050;2024-02-16T11:18:02;7.40;99.90
68480;DHT22;55469;48.934;12.050;2024-02-16T11:20:35;7.50;99.90
68480;DHT22;55469;48.934;12.050;2024-02-16T11:23:06;7.50;99.90
68480;DHT22;55469;48.934;12.050;2024-02-16T11:25:33;7.50;99.90
68480;DHT22;55469;48.934;12.050;2024-02-16T11:27:59;7.50;99.90
68480;DHT22;55469;48.934;12.050;2024-02-16T11:30:25;7.50;99.90
68480;DHT22;55469;48.934;12.050;2024-02-16T11:32:51;7.60;99.90
68480;DHT22;55469;48.934;12.050;2024-02-16T11:35:16;7.60;99.90
68480;DHT22;55469;48.934;12.050;2024-02-16T11:37:42;7.60;99.90
68480;DHT22;55469;48.934;12.050;2024-02-16T11:40:11;7.60;99.90
68480;DHT22;55469;48.934;12.050;2024-02-16T11:42:37;7.60;99.90
68480;DHT22;55469;48.934;12.050;2024-02-16T11:45:03;7.60;99.90
68480;DHT22;55469;48.934;12.050;2024-02-16T11:47:29;7.70;99.90
68480;DHT22;55469;48.934;12.050;2024-02-16T11:50:04;7.70;99.90
68480;DHT22;55469;48.934;12.050;2024-02-16T11:52:31;7.70;99.90
68480;DHT22;55469;48.934;12.050;2024-02-16T11:54:57;7.70;99.90
68480;DHT22;55469;48.934;12.050;2024-02-16T11:57:26;7.70;99.90
68480;DHT22;55469;48.934;12.050;2024-02-16T11:59:54;7.80;99.90
68480;DHT22;55469;48.934;12.050;2024-02-16T12:02:20;7.80;99.90
68480;DHT22;55469;48.934;12.050;2024-02-16T12:04:47;7.80;99.90
68480;DHT22;55469;48.934;12.050;2024-02-16T12:07:13;7.80;99.90
68480;DHT22;55469;48.934;12.050;2024-02-16T12:09:39;7.80;99.90
68480;DHT22;55469;48.934;12.050;2024-02-16T12:12:05;7.80;99.90
68480;DHT22;55469;48.934;12.050;2024-02-16T12:14:31;7.90;99.90
68480;DHT22;55469;48.934;12.050;2024-02-16T12:16:58;7.80;99.90
68480;DHT22;55469;48.934;12.050;2024-02-16T12:19:24;7.90;99.90
68480;DHT22;55469;48.934;12.050;2024-02-16T12:21:54;7.90;99.90
68480;DHT22;55469;48.934;12.050;2024-02-16T12:24:22;7.90;99.90
68480;DHT22;55469;48.934;12.050;2024-02-16T12:26:48;7.90;99.90
68480;DHT22;55469;48.934;12.050;2024-02-16T12:29:13;8.00;99.90
68480;DHT22;55469;48.934;12.050;2024-02-16T12:31:46;8.00;99.90
68480;DHT22;55469;48.934;12.050;2024-02-16T12:34:14;8.00;99.90
68480;DHT22;55469;48.934;12.050;2024-02-16T12:36:40;8.00;99.90
68480;DHT22;55469;48.934;12.050;2024-02-16T12:39:07;8.00;99.90
68480;DHT22;55469;48.934;12.050;2024-02-16T12:41:34;8.00;99.90
68480;DHT22;55469;48.934;12.050;2024-02-16T12:44:01;8.10;99.90
68480;DHT22;55469;48.934;12.050;2024-02-16T12:46:27;8.10;99.90
68480;DHT22;55469;48.934;12.050;2024-02-16T12:48:54;8.10;99.90
68480;DHT22;55469;48.934;12.050;2024-02-16T12:51:19;8.10;99.90
68480;DHT22;55469;48.934;12.050;2024-02-16T12:53:45;8.10;99.90
68480;DHT22;55469;48.934;12.050;2024-02-16T12:56:11;8.10;99.90
68480;DHT22;55469;48.934;12.050;2024-02-16T12:58:37;8.20;99.90
68480;DHT22;55469;48.934;12.050;2024-02-16T13:01:03;8.20;99.90
68480;DHT22;55469;48.934;12.050;2024-02-16T13:03:34;8.20;99.90
68480;DHT22;55469;48.934;12.050;2024-02-16T13:06:00;8.20;99.90
68480;DHT22;55469;48.934;12.050;2024-02-16T13:08:26;8.30;99.90
68480;DHT22;55469;48.934;12.050;2024-02-16T13:10:52;8.20;99.90
68480;DHT22;55469;48.934;12.050;2024-02-16T13:13:18;8.30;99.90
68480;DHT22;55469;48.934;12.050;2024-02-16T13:15:45;8.30;99.90
68480;DHT22;55469;48.934;12.050;2024-02-16T13:18:12;8.30;99.90
68480;DHT22;55469;48.934;12.050;2024-02-16T13:20:38;8.30;99.90
68480;DHT22;55469;48.934;12.050;2024-02-16T13:23:04;8.30;99.90
68480;DHT22;55469;48.934;12.050;2024-02-16T13:25:30;8.30;99.90
68480;DHT22;55469;48.934;12.050;2024-02-16T13:27:55;8.40;99.90
68480;DHT22;55469;48.934;12.050;2024-02-16T13:30:21;8.40;99.90
68480;DHT22;55469;48.934;12.050;2024-02-16T13:32:47;8.40;99.90
68480;DHT22;55469;48.934;12.050;2024-02-16T13:35:13;8.40;99.90
68480;DHT22;55469;48.934;12.050;2024-02-16T13:37:39;8.40;99.90
68480;DHT22;55469;48.934;12.050;2024-02-16T13:40:06;8.40;99.90
68480;DHT22;55469;48.934;12.050;2024-02-16T13:42:39;8.40;99.90
68480;DHT22;55469;48.934;12.050;2024-02-16T13:45:06;8.40;99.90
68480;DHT22;55469;48.934;12.050;2024-02-16T13:47:32;8.50;99.90
68480;DHT22;55469;48.934;12.050;2024-02-16T13:49:58;8.50;99.90
68480;DHT22;55469;48.934;12.050;2024-02-16T13:52:25;8.50;99.90
68480;DHT22;55469;48.934;12.050;2024-02-16T13:54:51;8.60;99.90
68480;DHT22;55469;48.934;12.050;2024-02-16T13:57:17;8.70;99.90
68480;DHT22;55469;48.934;12.050;2024-02-16T13:59:43;8.80;99.90
68480;DHT22;55469;48.934;12.050;2024-02-16T14:02:12;9.00;99.90
68480;DHT22;55469;48.934;12.050;2024-02-16T14:04:37;8.90;99.90
68480;DHT22;55469;48.934;12.050;2024-02-16T14:07:03;8.90;99.90
68480;DHT22;55469;48.934;12.050;2024-02-16T14:09:29;8.80;99.90
68480;DHT22;55469;48.934;12.050;2024-02-16T14:11:55;8.80;99.90
68480;DHT22;55469;48.934;12.050;2024-02-16T14:14:24;8.80;99.90
68480;DHT22;55469;48.934;12.050;2024-02-16T14:16:50;8.80;99.90
68480;DHT22;55469;48.934;12.050;2024-02-16T14:19:16;8.80;99.90
68480;DHT22;55469;48.934;12.050;2024-02-16T14:21:44;8.80;99.90
68480;DHT22;55469;48.934;12.050;2024-02-16T14:24:12;8.80;99.90
68480;DHT22;55469;48.934;12.050;2024-02-16T14:26:38;8.80;99.90
68480;DHT22;55469;48.934;12.050;2024-02-16T14:29:04;8.80;99.90
68480;DHT22;55469;48.934;12.050;2024-02-16T14:31:31;8.80;99.90
68480;DHT22;55469;48.934;12.050;2024-02-16T14:33:59;8.80;99.90
68480;DHT22;55469;48.934;12.050;2024-02-16T14:36:24;8.80;99.90
68480;DHT22;55469;48.934;12.050;2024-02-16T14:38:50;8.80;99.90
68480;DHT22;55469;48.934;12.050;2024-02-16T14:41:16;8.80;99.90
68480;DHT22;55469;48.934;12.050;2024-02-16T14:43:42;8.90;99.90
68480;DHT22;55469;48.934;12.050;2024-02-16T14:46:08;8.90;99.90
68480;DHT22;55469;48.934;12.050;2024-02-16T14:48:35;8.90;99.90
68480;DHT22;55469;48.934;12.050;2024-02-16T14:51:01;8.90;99.90
68480;DHT22;55469;48.934;12.050;2024-02-16T14:53:27;8.90;99.90
68480;DHT22;55469;48.934;12.050;2024-02-16T14:55:55;8.90;99.90
68480;DHT22;55469;48.934;12.050;2024-02-16T14:58:21;8.90;99.90
68480;DHT22;55469;48.934;12.050;2024-02-16T15:00:47;8.90;99.90
68480;DHT22;55469;48.934;12.050;2024-02-16T15:03:12;8.90;99.90
68480;DHT22;55469;48.934;12.050;2024-02-16T15:05:41;9.00;99.90
68480;DHT22;55469;48.934;12.050;2024-02-16T15:08:06;9.00;99.90
68480;DHT22;55469;48.934;12.050;2024-02-16T15:10:32;9.00;99.90
68480;DHT22;55469;48.934;12.050;2024-02-16T15:12:58;9.00;99.90
68480;DHT22;55469;48.934;12.050;2024-02-16T15:15:23;9.00;99.90
68480;DHT22;55469;48.934;12.050;2024-02-16T15:17:49;9.00;99.90
68480;DHT22;55469;48.934;12.050;2024-02-16T15:20:14;9.00;99.90
68480;DHT22;55469;48.934;12.050;2024-02-16T15:22:40;9.00;99.90
68480;DHT22;55469;48.934;12.050;2024-02-16T15:25:06;9.00;99.90
68480;DHT22;55469;48.934;12.050;2024-02-16T15:27:33;9.00;99.90
68480;DHT22;55469;48.934;12.050;2024-02-16T15:29:59;9.10;99.90